sensor_id;sensor_type;location;lat;lon;timestamp;P1;durP1;ratioP1;P2;durP2;ratioP2
10096;SDS011;5087;42.662;23.466;2023-06-24T00:01:59;0.00;;;0.00;;
10096;SDS011;5087;42.662;23.466;2023-06-24T00:04:27;0.07;;;0.07;;
10096;SDS011;5087;42.662;23.466;2023-06-24T00:07:03;0.00;;;0.00;;
10096;SDS011;5087;42.662;23.466;2023-06-24T00:09:32;0.07;;;0.07;;
10096;SDS011;5087;42.662;23.466;2023-06-24T00:11:59;0.00;;;0.00;;
10096;SDS011;5087;42.662;23.466;2023-06-24T00:14:26;0.00;;;0.00;;
10096;SDS011;5087;42.662;23.466;2023-06-24T00:16:55;0.00;;;0.00;;
10096;SDS011;5087;42.662;23.466;2023-06-24T00:19:23;0.00;;;0.00;;
10096;SDS011;5087;42.662;23.466;2023-06-24T00:21:51;0.00;;;0.00;;
10096;SDS011;5087;42.662;23.466;2023-06-24T00:24:21;0.00;;;0.00;;
10096;SDS011;5087;42.662;23.466;2023-06-24T00:26:50;0.00;;;0.00;;
10096;SDS011;5087;42.662;23.466;2023-06-24T00:29:18;0.07;;;0.07;;
10096;SDS011;5087;42.662;23.466;2023-06-24T00:31:46;0.37;;;0.37;;
10096;SDS011;5087;42.662;23.466;2023-06-24T00:34:13;0.00;;;0.00;;
10096;SDS011;5087;42.662;23.466;2023-06-24T00:36:41;0.00;;;0.00;;
10096;SDS011;5087;42.662;23.466;2023-06-24T00:39:15;0.00;;;0.00;;
10096;SDS011;5087;42.662;23.466;2023-06-24T00:41:44;0.00;;;0.00;;
10096;SDS011;5087;42.662;23.466;2023-06-24T00:44:11;0.00;;;0.00;;
10096;SDS011;5087;42.662;23.466;2023-06-24T00:46:46;0.00;;;0.00;;
10096;SDS011;5087;42.662;23.466;2023-06-24T00:49:21;0.10;;;0.10;;
10096;SDS011;5087;42.662;23.466;2023-06-24T00:51:49;0.00;;;0.00;;
10096;SDS011;5087;42.662;23.466;2023-06-24T00:54:17;0.00;;;0.00;;
10096;SDS011;5087;42.662;23.466;2023-06-24T00:56:46;0.00;;;0.00;;
10096;SDS011;5087;42.662;23.466;2023-06-24T00:59:19;0.00;;;0.00;;
10096;SDS011;5087;42.662;23.466;2023-06-24T01:01:47;0.00;;;0.00;;
10096;SDS011;5087;42.662;23.466;2023-06-24T01:04:18;0.00;;;0.00;;
10096;SDS011;5087;42.662;23.466;2023-06-24T01:06:49;0.13;;;0.13;;
10096;SDS011;5087;42.662;23.466;2023-06-24T01:09:17;0.00;;;0.00;;
10096;SDS011;5087;42.662;23.466;2023-06-24T01:11:45;0.00;;;0.00;;
10096;SDS011;5087;42.662;23.466;2023-06-24T01:14:16;0.00;;;0.00;;
10096;SDS011;5087;42.662;23.466;2023-06-24T01:16:51;0.10;;;0.10;;
10096;SDS011;5087;42.662;23.466;2023-06-24T01:19:37;0.20;;;0.20;;
10096;SDS011;5087;42.662;23.466;2023-06-24T01:22:32;0.00;;;0.00;;
10096;SDS011;5087;42.662;23.466;2023-06-24T01:25:21;0.20;;;0.10;;
10096;SDS011;5087;42.662;23.466;2023-06-24T01:28:06;0.43;;;0.20;;
10096;SDS011;5087;42.662;23.466;2023-06-24T01:34:01;0.00;;;0.00;;
10096;SDS011;5087;42.662;23.466;2023-06-24T01:36:34;0.00;;;0.00;;
10096;SDS011;5087;42.662;23.466;2023-06-24T01:39:04;0.00;;;0.00;;
10096;SDS011;5087;42.662;23.466;2023-06-24T01:41:47;0.00;;;0.00;;
10096;SDS011;5087;42.662;23.466;2023-06-24T01:44:20;0.40;;;0.10;;
10096;SDS011;5087;42.662;23.466;2023-06-24T01:46:50;0.00;;;0.00;;
10096;SDS011;5087;42.662;23.466;2023-06-24T01:49:24;0.00;;;0.00;;
10096;SDS011;5087;42.662;23.466;2023-06-24T01:52:00;0.00;;;0.00;;
10096;SDS011;5087;42.662;23.466;2023-06-24T01:54:31;0.00;;;0.00;;
10096;SDS011;5087;42.662;23.466;2023-06-24T01:57:00;0.00;;;0.00;;
10096;SDS011;5087;42.662;23.466;2023-06-24T01:59:30;0.20;;;0.10;;
10096;SDS011;5087;42.662;23.466;2023-06-24T02:02:00;0.30;;;0.30;;
10096;SDS011;5087;42.662;23.466;2023-06-24T02:04:34;0.00;;;0.00;;
10096;SDS011;5087;42.662;23.466;2023-06-24T02:07:07;0.13;;;0.13;;
10096;SDS011;5087;42.662;23.466;2023-06-24T02:09:40;0.00;;;0.00;;
10096;SDS011;5087;42.662;23.466;2023-06-24T02:12:10;0.00;;;0.00;;
10096;SDS011;5087;42.662;23.466;2023-06-24T02:14:45;0.10;;;0.10;;
10096;SDS011;5087;42.662;23.466;2023-06-24T02:17:15;0.30;;;0.30;;
10096;SDS011;5087;42.662;23.466;2023-06-24T02:19:44;0.00;;;0.00;;
10096;SDS011;5087;42.662;23.466;2023-06-24T02:22:14;0.00;;;0.00;;
10096;SDS011;5087;42.662;23.466;2023-06-24T02:24:43;0.00;;;0.00;;
10096;SDS011;5087;42.662;23.466;2023-06-24T02:27:15;0.30;;;0.20;;
10096;SDS011;5087;42.662;23.466;2023-06-24T02:29:43;0.10;;;0.10;;
10096;SDS011;5087;42.662;23.466;2023-06-24T02:32:16;0.00;;;0.00;;
10096;SDS011;5087;42.662;23.466;2023-06-24T02:34:47;0.00;;;0.00;;
10096;SDS011;5087;42.662;23.466;2023-06-24T02:37:14;0.00;;;0.00;;
10096;SDS011;5087;42.662;23.466;2023-06-24T02:39:42;0.00;;;0.00;;
10096;SDS011;5087;42.662;23.466;2023-06-24T02:42:10;0.10;;;0.10;;
10096;SDS011;5087;42.662;23.466;2023-06-24T02:44:40;0.00;;;0.00;;
10096;SDS011;5087;42.662;23.466;2023-06-24T02:47:09;0.00;;;0.00;;
10096;SDS011;5087;42.662;23.466;2023-06-24T02:49:40;0.00;;;0.00;;
10096;SDS011;5087;42.662;23.466;2023-06-24T02:52:13;0.00;;;0.00;;
10096;SDS011;5087;42.662;23.466;2023-06-24T02:54:42;0.00;;;0.00;;
10096;SDS011;5087;42.662;23.466;2023-06-24T02:57:32;0.00;;;0.00;;
10096;SDS011;5087;42.662;23.466;2023-06-24T03:00:20;0.10;;;0.10;;
10096;SDS011;5087;42.662;23.466;2023-06-24T03:03:18;0.00;;;0.00;;
10096;SDS011;5087;42.662;23.466;2023-06-24T03:05:52;0.00;;;0.00;;
10096;SDS011;5087;42.662;23.466;2023-06-24T03:08:23;0.00;;;0.00;;
10096;SDS011;5087;42.662;23.466;2023-06-24T03:10:53;0.00;;;0.00;;
10096;SDS011;5087;42.662;23.466;2023-06-24T03:13:25;0.00;;;0.00;;
10096;SDS011;5087;42.662;23.466;2023-06-24T03:16:15;0.10;;;0.10;;
10096;SDS011;5087;42.662;23.466;2023-06-24T03:18:52;0.00;;;0.00;;
10096;SDS011;5087;42.662;23.466;2023-06-24T03:21:22;0.30;;;0.10;;
10096;SDS011;5087;42.662;23.466;2023-06-24T03:23:59;1.40;;;0.20;;
10096;SDS011;5087;42.662;23.466;2023-06-24T03:26:31;0.00;;;0.00;;
10096;SDS011;5087;42.662;23.466;2023-06-24T03:29:11;0.00;;;0.00;;
10096;SDS011;5087;42.662;23.466;2023-06-24T03:31:46;0.27;;;0.10;;
10096;SDS011;5087;42.662;23.466;2023-06-24T03:34:19;0.00;;;0.00;;
10096;SDS011;5087;42.662;23.466;2023-06-24T03:36:53;1.07;;;0.70;;
10096;SDS011;5087;42.662;23.466;2023-06-24T03:39:21;0.30;;;0.30;;
10096;SDS011;5087;42.662;23.466;2023-06-24T03:41:48;0.00;;;0.00;;
10096;SDS011;5087;42.662;23.466;2023-06-24T03:44:16;0.00;;;0.00;;
10096;SDS011;5087;42.662;23.466;2023-06-24T03:46:43;0.00;;;0.00;;
10096;SDS011;5087;42.662;23.466;2023-06-24T03:49:11;0.20;;;0.20;;
10096;SDS011;5087;42.662;23.466;2023-06-24T03:51:42;0.10;;;0.10;;
10096;SDS011;5087;42.662;23.466;2023-06-24T03:54:13;0.10;;;0.10;;
10096;SDS011;5087;42.662;23.466;2023-06-24T03:56:40;0.00;;;0.00;;
10096;SDS011;5087;42.662;23.466;2023-06-24T03:59:07;0.37;;;0.37;;
10096;SDS011;5087;42.662;23.466;2023-06-24T04:01:38;0.17;;;0.17;;
10096;SDS011;5087;42.662;23.466;2023-06-24T04:04:05;0.17;;;0.17;;
10096;SDS011;5087;42.662;23.466;2023-06-24T04:06:32;1.10;;;0.87;;
10096;SDS011;5087;42.662;23.466;2023-06-24T04:09:00;0.40;;;0.40;;
10096;SDS011;5087;42.662;23.466;2023-06-24T04:11:40;0.30;;;0.30;;
10096;SDS011;5087;42.662;23.466;2023-06-24T04:14:07;0.20;;;0.20;;
10096;SDS011;5087;42.662;23.466;2023-06-24T04:16:38;0.20;;;0.20;;
10096;SDS011;5087;42.662;23.466;2023-06-24T04:19:05;0.20;;;0.20;;
10096;SDS011;5087;42.662;23.466;2023-06-24T04:21:32;0.30;;;0.30;;
10096;SDS011;5087;42.662;23.466;2023-06-24T04:24:00;0.30;;;0.30;;
10096;SDS011;5087;42.662;23.466;2023-06-24T04:26:27;0.87;;;0.43;;
10096;SDS011;5087;42.662;23.466;2023-06-24T04:28:58;0.20;;;0.20;;
10096;SDS011;5087;42.662;23.466;2023-06-24T04:31:28;0.20;;;0.20;;
10096;SDS011;5087;42.662;23.466;2023-06-24T04:34:01;0.40;;;0.40;;
10096;SDS011;5087;42.662;23.466;2023-06-24T04:36:32;0.47;;;0.43;;
10096;SDS011;5087;42.662;23.466;2023-06-24T04:39:01;0.40;;;0.40;;
10096;SDS011;5087;42.662;23.466;2023-06-24T04:41:28;0.30;;;0.30;;
10096;SDS011;5087;42.662;23.466;2023-06-24T04:44:00;0.30;;;0.30;;
10096;SDS011;5087;42.662;23.466;2023-06-24T04:46:31;0.60;;;0.60;;
10096;SDS011;5087;42.662;23.466;2023-06-24T04:49:00;0.20;;;0.20;;
10096;SDS011;5087;42.662;23.466;2023-06-24T04:51:27;0.30;;;0.30;;
10096;SDS011;5087;42.662;23.466;2023-06-24T04:54:04;0.20;;;0.20;;
10096;SDS011;5087;42.662;23.466;2023-06-24T04:56:33;0.30;;;0.30;;
10096;SDS011;5087;42.662;23.466;2023-06-24T04:59:10;0.30;;;0.30;;
10096;SDS011;5087;42.662;23.466;2023-06-24T05:01:37;0.27;;;0.27;;
10096;SDS011;5087;42.662;23.466;2023-06-24T05:04:04;0.37;;;0.37;;
10096;SDS011;5087;42.662;23.466;2023-06-24T05:06:32;0.30;;;0.30;;
10096;SDS011;5087;42.662;23.466;2023-06-24T05:09:01;0.20;;;0.20;;
10096;SDS011;5087;42.662;23.466;2023-06-24T05:11:28;0.30;;;0.30;;
10096;SDS011;5087;42.662;23.466;2023-06-24T05:13:55;0.20;;;0.20;;
10096;SDS011;5087;42.662;23.466;2023-06-24T05:16:24;0.20;;;0.20;;
10096;SDS011;5087;42.662;23.466;2023-06-24T05:18:52;0.20;;;0.20;;
10096;SDS011;5087;42.662;23.466;2023-06-24T05:21:19;0.20;;;0.20;;
10096;SDS011;5087;42.662;23.466;2023-06-24T05:23:48;0.47;;;0.47;;
10096;SDS011;5087;42.662;23.466;2023-06-24T05:26:16;0.30;;;0.30;;
10096;SDS011;5087;42.662;23.466;2023-06-24T05:28:43;0.50;;;0.50;;
10096;SDS011;5087;42.662;23.466;2023-06-24T05:31:13;0.30;;;0.30;;
10096;SDS011;5087;42.662;23.466;2023-06-24T05:33:42;0.40;;;0.40;;
10096;SDS011;5087;42.662;23.466;2023-06-24T05:36:09;0.30;;;0.30;;
10096;SDS011;5087;42.662;23.466;2023-06-24T05:38:37;0.40;;;0.40;;
10096;SDS011;5087;42.662;23.466;2023-06-24T05:41:04;0.30;;;0.30;;
10096;SDS011;5087;42.662;23.466;2023-06-24T05:43:32;0.40;;;0.40;;
10096;SDS011;5087;42.662;23.466;2023-06-24T05:46:02;0.50;;;0.50;;
10096;SDS011;5087;42.662;23.466;2023-06-24T05:48:36;0.73;;;0.70;;
10096;SDS011;5087;42.662;23.466;2023-06-24T05:51:14;0.33;;;0.33;;
10096;SDS011;5087;42.662;23.466;2023-06-24T05:53:41;0.40;;;0.40;;
10096;SDS011;5087;42.662;23.466;2023-06-24T05:56:09;0.67;;;0.67;;
10096;SDS011;5087;42.662;23.466;2023-06-24T05:58:40;0.40;;;0.40;;
10096;SDS011;5087;42.662;23.466;2023-06-24T06:01:09;0.40;;;0.40;;
10096;SDS011;5087;42.662;23.466;2023-06-24T06:03:37;0.40;;;0.40;;
10096;SDS011;5087;42.662;23.466;2023-06-24T06:06:07;0.60;;;0.60;;
10096;SDS011;5087;42.662;23.466;2023-06-24T06:08:35;0.70;;;0.70;;
10096;SDS011;5087;42.662;23.466;2023-06-24T06:11:09;0.50;;;0.50;;
10096;SDS011;5087;42.662;23.466;2023-06-24T06:13:39;0.40;;;0.40;;
10096;SDS011;5087;42.662;23.466;2023-06-24T06:16:07;0.60;;;0.60;;
10096;SDS011;5087;42.662;23.466;2023-06-24T06:18:34;0.40;;;0.40;;
10096;SDS011;5087;42.662;23.466;2023-06-24T06:21:01;0.60;;;0.60;;
10096;SDS011;5087;42.662;23.466;2023-06-24T06:23:29;0.53;;;0.53;;
10096;SDS011;5087;42.662;23.466;2023-06-24T06:26:01;0.50;;;0.50;;
10096;SDS011;5087;42.662;23.466;2023-06-24T06:28:28;0.50;;;0.50;;
10096;SDS011;5087;42.662;23.466;2023-06-24T06:30:59;2.57;;;1.43;;
10096;SDS011;5087;42.662;23.466;2023-06-24T06:33:26;0.47;;;0.47;;
10096;SDS011;5087;42.662;23.466;2023-06-24T06:35:54;0.50;;;0.50;;
10096;SDS011;5087;42.662;23.466;2023-06-24T06:38:21;0.40;;;0.40;;
10096;SDS011;5087;42.662;23.466;2023-06-24T06:40:48;0.60;;;0.60;;
10096;SDS011;5087;42.662;23.466;2023-06-24T06:43:17;0.50;;;0.50;;
10096;SDS011;5087;42.662;23.466;2023-06-24T06:45:45;0.60;;;0.60;;
10096;SDS011;5087;42.662;23.466;2023-06-24T06:48:17;0.50;;;0.50;;
10096;SDS011;5087;42.662;23.466;2023-06-24T06:50:44;0.70;;;0.70;;
10096;SDS011;5087;42.662;23.466;2023-06-24T06:53:14;0.50;;;0.50;;
10096;SDS011;5087;42.662;23.466;2023-06-24T06:55:45;0.73;;;0.73;;
10096;SDS011;5087;42.662;23.466;2023-06-24T06:58:12;0.60;;;0.60;;
10096;SDS011;5087;42.662;23.466;2023-06-24T07:00:41;0.70;;;0.70;;
10096;SDS011;5087;42.662;23.466;2023-06-24T07:03:13;0.63;;;0.63;;
10096;SDS011;5087;42.662;23.466;2023-06-24T07:05:42;0.50;;;0.50;;
10096;SDS011;5087;42.662;23.466;2023-06-24T07:08:10;0.50;;;0.50;;
10096;SDS011;5087;42.662;23.466;2023-06-24T07:10:37;0.30;;;0.30;;
10096;SDS011;5087;42.662;23.466;2023-06-24T07:13:05;0.40;;;0.40;;
10096;SDS011;5087;42.662;23.466;2023-06-24T07:15:32;0.40;;;0.40;;
10096;SDS011;5087;42.662;23.466;2023-06-24T07:18:01;0.50;;;0.50;;
10096;SDS011;5087;42.662;23.466;2023-06-24T07:20:29;0.40;;;0.40;;
10096;SDS011;5087;42.662;23.466;2023-06-24T07:22:59;0.97;;;0.90;;
10096;SDS011;5087;42.662;23.466;2023-06-24T07:25:33;0.40;;;0.40;;
10096;SDS011;5087;42.662;23.466;2023-06-24T07:28:00;0.40;;;0.40;;
10096;SDS011;5087;42.662;23.466;2023-06-24T07:30:27;0.50;;;0.50;;
10096;SDS011;5087;42.662;23.466;2023-06-24T07:32:57;0.60;;;0.60;;
10096;SDS011;5087;42.662;23.466;2023-06-24T07:35:32;0.43;;;0.43;;
10096;SDS011;5087;42.662;23.466;2023-06-24T07:38:01;0.57;;;0.57;;
10096;SDS011;5087;42.662;23.466;2023-06-24T07:40:30;0.73;;;0.73;;
10096;SDS011;5087;42.662;23.466;2023-06-24T07:42:58;0.40;;;0.40;;
10096;SDS011;5087;42.662;23.466;2023-06-24T07:45:25;0.43;;;0.43;;
10096;SDS011;5087;42.662;23.466;2023-06-24T07:47:55;0.57;;;0.57;;
10096;SDS011;5087;42.662;23.466;2023-06-24T07:50:22;0.40;;;0.40;;
10096;SDS011;5087;42.662;23.466;2023-06-24T07:52:52;0.40;;;0.40;;
10096;SDS011;5087;42.662;23.466;2023-06-24T07:55:22;0.40;;;0.40;;
10096;SDS011;5087;42.662;23.466;2023-06-24T07:57:51;0.47;;;0.47;;
10096;SDS011;5087;42.662;23.466;2023-06-24T08:00:18;0.60;;;0.60;;
10096;SDS011;5087;42.662;23.466;2023-06-24T08:02:49;0.30;;;0.30;;
10096;SDS011;5087;42.662;23.466;2023-06-24T08:05:17;0.50;;;0.50;;
10096;SDS011;5087;42.662;23.466;2023-06-24T08:07:45;0.33;;;0.33;;
10096;SDS011;5087;42.662;23.466;2023-06-24T08:10:14;1.70;;;0.50;;
10096;SDS011;5087;42.662;23.466;2023-06-24T08:12:45;1.50;;;0.40;;
10096;SDS011;5087;42.662;23.466;2023-06-24T08:15:12;0.47;;;0.47;;
10096;SDS011;5087;42.662;23.466;2023-06-24T08:17:40;0.40;;;0.40;;
10096;SDS011;5087;42.662;23.466;2023-06-24T08:20:08;0.30;;;0.30;;
10096;SDS011;5087;42.662;23.466;2023-06-24T08:22:41;0.30;;;0.30;;
10096;SDS011;5087;42.662;23.466;2023-06-24T08:25:08;0.40;;;0.40;;
10096;SDS011;5087;42.662;23.466;2023-06-24T08:27:37;0.60;;;0.60;;
10096;SDS011;5087;42.662;23.466;2023-06-24T08:30:04;0.40;;;0.40;;
10096;SDS011;5087;42.662;23.466;2023-06-24T08:32:35;0.33;;;0.33;;
10096;SDS011;5087;42.662;23.466;2023-06-24T08:35:03;0.40;;;0.40;;
10096;SDS011;5087;42.662;23.466;2023-06-24T08:37:31;0.43;;;0.43;;
10096;SDS011;5087;42.662;23.466;2023-06-24T08:39:58;0.30;;;0.30;;
10096;SDS011;5087;42.662;23.466;2023-06-24T08:42:25;0.30;;;0.30;;
10096;SDS011;5087;42.662;23.466;2023-06-24T08:44:54;0.40;;;0.40;;
10096;SDS011;5087;42.662;23.466;2023-06-24T08:47:21;0.40;;;0.40;;
10096;SDS011;5087;42.662;23.466;2023-06-24T08:49:52;1.43;;;0.73;;
10096;SDS011;5087;42.662;23.466;2023-06-24T08:52:26;0.40;;;0.40;;
10096;SDS011;5087;42.662;23.466;2023-06-24T08:55:04;0.53;;;0.53;;
10096;SDS011;5087;42.662;23.466;2023-06-24T08:57:39;0.50;;;0.50;;
10096;SDS011;5087;42.662;23.466;2023-06-24T09:00:08;0.30;;;0.30;;
10096;SDS011;5087;42.662;23.466;2023-06-24T09:02:41;0.20;;;0.20;;
10096;SDS011;5087;42.662;23.466;2023-06-24T09:05:11;0.30;;;0.30;;
10096;SDS011;5087;42.662;23.466;2023-06-24T09:07:38;1.03;;;0.60;;
10096;SDS011;5087;42.662;23.466;2023-06-24T09:10:09;0.30;;;0.30;;
10096;SDS011;5087;42.662;23.466;2023-06-24T09:12:36;0.50;;;0.50;;
10096;SDS011;5087;42.662;23.466;2023-06-24T09:15:04;0.77;;;0.60;;
10096;SDS011;5087;42.662;23.466;2023-06-24T09:17:41;0.43;;;0.43;;
10096;SDS011;5087;42.662;23.466;2023-06-24T09:20:16;0.30;;;0.30;;
10096;SDS011;5087;42.662;23.466;2023-06-24T09:22:48;0.20;;;0.20;;
10096;SDS011;5087;42.662;23.466;2023-06-24T09:25:18;0.40;;;0.40;;
10096;SDS011;5087;42.662;23.466;2023-06-24T09:27:49;0.20;;;0.20;;
10096;SDS011;5087;42.662;23.466;2023-06-24T09:30:18;0.30;;;0.30;;
10096;SDS011;5087;42.662;23.466;2023-06-24T09:32:47;0.77;;;0.33;;
10096;SDS011;5087;42.662;23.466;2023-06-24T09:35:16;0.30;;;0.30;;
10096;SDS011;5087;42.662;23.466;2023-06-24T09:37:49;0.20;;;0.20;;
10096;SDS011;5087;42.662;23.466;2023-06-24T09:40:18;0.73;;;0.73;;
10096;SDS011;5087;42.662;23.466;2023-06-24T09:42:49;0.70;;;0.50;;
10096;SDS011;5087;42.662;23.466;2023-06-24T09:45:25;0.53;;;0.47;;
10096;SDS011;5087;42.662;23.466;2023-06-24T09:47:55;0.40;;;0.40;;
10096;SDS011;5087;42.662;23.466;2023-06-24T09:50:24;0.30;;;0.30;;
10096;SDS011;5087;42.662;23.466;2023-06-24T09:52:52;0.30;;;0.30;;
10096;SDS011;5087;42.662;23.466;2023-06-24T09:55:21;0.60;;;0.60;;
10096;SDS011;5087;42.662;23.466;2023-06-24T09:57:50;0.30;;;0.30;;
10096;SDS011;5087;42.662;23.466;2023-06-24T10:00:20;0.20;;;0.20;;
10096;SDS011;5087;42.662;23.466;2023-06-24T10:02:48;0.50;;;0.50;;
10096;SDS011;5087;42.662;23.466;2023-06-24T10:05:17;0.40;;;0.40;;
10096;SDS011;5087;42.662;23.466;2023-06-24T10:07:44;0.28;;;0.28;;
10096;SDS011;5087;42.662;23.466;2023-06-24T10:10:13;0.60;;;0.60;;
10096;SDS011;5087;42.662;23.466;2023-06-24T10:12:41;0.30;;;0.30;;
10096;SDS011;5087;42.662;23.466;2023-06-24T10:15:09;0.20;;;0.20;;
10096;SDS011;5087;42.662;23.466;2023-06-24T10:17:37;0.30;;;0.30;;
10096;SDS011;5087;42.662;23.466;2023-06-24T10:20:05;0.20;;;0.20;;
10096;SDS011;5087;42.662;23.466;2023-06-24T10:22:34;0.33;;;0.33;;
10096;SDS011;5087;42.662;23.466;2023-06-24T10:25:05;0.30;;;0.30;;
10096;SDS011;5087;42.662;23.466;2023-06-24T10:27:39;0.20;;;0.20;;
10096;SDS011;5087;42.662;23.466;2023-06-24T10:30:08;0.20;;;0.20;;
10096;SDS011;5087;42.662;23.466;2023-06-24T10:32:43;0.20;;;0.20;;
10096;SDS011;5087;42.662;23.466;2023-06-24T10:35:21;0.30;;;0.30;;
10096;SDS011;5087;42.662;23.466;2023-06-24T10:37:57;0.20;;;0.20;;
10096;SDS011;5087;42.662;23.466;2023-06-24T10:40:39;0.47;;;0.47;;
10096;SDS011;5087;42.662;23.466;2023-06-24T10:45:58;0.30;;;0.30;;
10096;SDS011;5087;42.662;23.466;2023-06-24T10:48:25;0.30;;;0.30;;
10096;SDS011;5087;42.662;23.466;2023-06-24T10:50:52;0.20;;;0.20;;
10096;SDS011;5087;42.662;23.466;2023-06-24T10:53:21;0.43;;;0.30;;
10096;SDS011;5087;42.662;23.466;2023-06-24T10:55:49;0.20;;;0.20;;
10096;SDS011;5087;42.662;23.466;2023-06-24T10:58:16;0.50;;;0.50;;
10096;SDS011;5087;42.662;23.466;2023-06-24T11:00:43;0.10;;;0.10;;
10096;SDS011;5087;42.662;23.466;2023-06-24T11:03:12;0.10;;;0.10;;
10096;SDS011;5087;42.662;23.466;2023-06-24T11:05:40;0.10;;;0.10;;
10096;SDS011;5087;42.662;23.466;2023-06-24T11:08:09;0.20;;;0.20;;
10096;SDS011;5087;42.662;23.466;2023-06-24T11:10:47;0.45;;;0.25;;
10096;SDS011;5087;42.662;23.466;2023-06-24T11:13:15;0.10;;;0.10;;
10096;SDS011;5087;42.662;23.466;2023-06-24T11:15:46;0.20;;;0.20;;
10096;SDS011;5087;42.662;23.466;2023-06-24T11:18:15;0.10;;;0.10;;
10096;SDS011;5087;42.662;23.466;2023-06-24T11:20:42;0.10;;;0.10;;
10096;SDS011;5087;42.662;23.466;2023-06-24T11:23:10;0.63;;;0.43;;
10096;SDS011;5087;42.662;23.466;2023-06-24T11:25:40;0.20;;;0.20;;
10096;SDS011;5087;42.662;23.466;2023-06-24T11:28:14;0.15;;;0.15;;
10096;SDS011;5087;42.662;23.466;2023-06-24T11:30:42;0.20;;;0.20;;
10096;SDS011;5087;42.662;23.466;2023-06-24T11:33:09;0.17;;;0.17;;
10096;SDS011;5087;42.662;23.466;2023-06-24T11:35:39;0.10;;;0.10;;
10096;SDS011;5087;42.662;23.466;2023-06-24T11:38:06;0.10;;;0.10;;
10096;SDS011;5087;42.662;23.466;2023-06-24T11:40:36;0.55;;;0.28;;
10096;SDS011;5087;42.662;23.466;2023-06-24T11:43:06;0.20;;;0.20;;
10096;SDS011;5087;42.662;23.466;2023-06-24T11:45:35;0.15;;;0.15;;
10096;SDS011;5087;42.662;23.466;2023-06-24T11:48:03;0.20;;;0.20;;
10096;SDS011;5087;42.662;23.466;2023-06-24T11:50:35;0.10;;;0.10;;
10096;SDS011;5087;42.662;23.466;2023-06-24T11:53:03;0.13;;;0.13;;
10096;SDS011;5087;42.662;23.466;2023-06-24T11:55:31;1.50;;;0.80;;
10096;SDS011;5087;42.662;23.466;2023-06-24T11:57:59;0.13;;;0.13;;
10096;SDS011;5087;42.662;23.466;2023-06-24T12:00:28;0.10;;;0.10;;
10096;SDS011;5087;42.662;23.466;2023-06-24T12:03:00;0.20;;;0.20;;
10096;SDS011;5087;42.662;23.466;2023-06-24T12:05:28;0.20;;;0.20;;
10096;SDS011;5087;42.662;23.466;2023-06-24T12:07:58;0.60;;;0.60;;
10096;SDS011;5087;42.662;23.466;2023-06-24T12:10:27;0.10;;;0.10;;
10096;SDS011;5087;42.662;23.466;2023-06-24T12:12:58;0.17;;;0.17;;
10096;SDS011;5087;42.662;23.466;2023-06-24T12:15:26;0.17;;;0.17;;
10096;SDS011;5087;42.662;23.466;2023-06-24T12:17:56;0.20;;;0.20;;
10096;SDS011;5087;42.662;23.466;2023-06-24T12:20:25;0.30;;;0.30;;
10096;SDS011;5087;42.662;23.466;2023-06-24T12:22:53;0.20;;;0.20;;
10096;SDS011;5087;42.662;23.466;2023-06-24T12:25:23;0.50;;;0.50;;
10096;SDS011;5087;42.662;23.466;2023-06-24T12:27:50;0.37;;;0.37;;
10096;SDS011;5087;42.662;23.466;2023-06-24T12:30:21;0.30;;;0.30;;
10096;SDS011;5087;42.662;23.466;2023-06-24T12:32:49;0.20;;;0.20;;
10096;SDS011;5087;42.662;23.466;2023-06-24T12:35:16;0.30;;;0.30;;
10096;SDS011;5087;42.662;23.466;2023-06-24T12:37:46;0.30;;;0.30;;
10096;SDS011;5087;42.662;23.466;2023-06-24T12:40:14;0.20;;;0.20;;
10096;SDS011;5087;42.662;23.466;2023-06-24T12:42:41;0.40;;;0.40;;
10096;SDS011;5087;42.662;23.466;2023-06-24T12:45:09;0.10;;;0.10;;
10096;SDS011;5087;42.662;23.466;2023-06-24T12:47:43;0.30;;;0.30;;
10096;SDS011;5087;42.662;23.466;2023-06-24T12:50:11;0.50;;;0.50;;
10096;SDS011;5087;42.662;23.466;2023-06-24T12:52:41;0.53;;;0.53;;
10096;SDS011;5087;42.662;23.466;2023-06-24T12:55:10;0.30;;;0.30;;
10096;SDS011;5087;42.662;23.466;2023-06-24T12:57:38;0.20;;;0.20;;
10096;SDS011;5087;42.662;23.466;2023-06-24T13:00:06;0.20;;;0.20;;
10096;SDS011;5087;42.662;23.466;2023-06-24T13:02:34;0.30;;;0.30;;
10096;SDS011;5087;42.662;23.466;2023-06-24T13:05:02;0.20;;;0.20;;
10096;SDS011;5087;42.662;23.466;2023-06-24T13:07:30;0.20;;;0.20;;
10096;SDS011;5087;42.662;23.466;2023-06-24T13:09:58;0.20;;;0.20;;
10096;SDS011;5087;42.662;23.466;2023-06-24T13:12:29;0.40;;;0.40;;
10096;SDS011;5087;42.662;23.466;2023-06-24T13:15:05;0.30;;;0.30;;
10096;SDS011;5087;42.662;23.466;2023-06-24T13:17:35;0.20;;;0.20;;
10096;SDS011;5087;42.662;23.466;2023-06-24T13:20:02;0.30;;;0.30;;
10096;SDS011;5087;42.662;23.466;2023-06-24T13:22:31;0.23;;;0.23;;
10096;SDS011;5087;42.662;23.466;2023-06-24T13:25:02;0.27;;;0.27;;
10096;SDS011;5087;42.662;23.466;2023-06-24T13:27:31;0.23;;;0.23;;
10096;SDS011;5087;42.662;23.466;2023-06-24T13:29:58;0.30;;;0.30;;
10096;SDS011;5087;42.662;23.466;2023-06-24T13:32:25;0.20;;;0.20;;
10096;SDS011;5087;42.662;23.466;2023-06-24T13:34:54;0.20;;;0.20;;
10096;SDS011;5087;42.662;23.466;2023-06-24T13:37:21;0.10;;;0.10;;
10096;SDS011;5087;42.662;23.466;2023-06-24T13:39:49;0.30;;;0.30;;
10096;SDS011;5087;42.662;23.466;2023-06-24T13:42:16;0.40;;;0.40;;
10096;SDS011;5087;42.662;23.466;2023-06-24T13:44:45;0.23;;;0.23;;
10096;SDS011;5087;42.662;23.466;2023-06-24T13:47:13;0.60;;;0.60;;
10096;SDS011;5087;42.662;23.466;2023-06-24T13:49:41;0.53;;;0.53;;
10096;SDS011;5087;42.662;23.466;2023-06-24T13:52:10;0.60;;;0.60;;
10096;SDS011;5087;42.662;23.466;2023-06-24T13:54:38;0.43;;;0.43;;
10096;SDS011;5087;42.662;23.466;2023-06-24T13:57:05;0.70;;;0.70;;
10096;SDS011;5087;42.662;23.466;2023-06-24T13:59:33;0.40;;;0.40;;
10096;SDS011;5087;42.662;23.466;2023-06-24T14:02:02;0.50;;;0.50;;
10096;SDS011;5087;42.662;23.466;2023-06-24T14:04:32;0.50;;;0.50;;
10096;SDS011;5087;42.662;23.466;2023-06-24T14:07:00;0.60;;;0.60;;
10096;SDS011;5087;42.662;23.466;2023-06-24T14:09:30;0.40;;;0.40;;
10096;SDS011;5087;42.662;23.466;2023-06-24T14:11:57;0.47;;;0.47;;
10096;SDS011;5087;42.662;23.466;2023-06-24T14:14:25;1.07;;;1.07;;
10096;SDS011;5087;42.662;23.466;2023-06-24T14:16:52;0.50;;;0.50;;
10096;SDS011;5087;42.662;23.466;2023-06-24T14:19:24;0.40;;;0.40;;
10096;SDS011;5087;42.662;23.466;2023-06-24T14:21:57;0.40;;;0.40;;
10096;SDS011;5087;42.662;23.466;2023-06-24T14:24:24;0.43;;;0.43;;
10096;SDS011;5087;42.662;23.466;2023-06-24T14:26:52;0.70;;;0.70;;
10096;SDS011;5087;42.662;23.466;2023-06-24T14:29:19;0.73;;;0.70;;
10096;SDS011;5087;42.662;23.466;2023-06-24T14:31:49;0.33;;;0.33;;
10096;SDS011;5087;42.662;23.466;2023-06-24T14:34:16;0.40;;;0.40;;
10096;SDS011;5087;42.662;23.466;2023-06-24T14:36:46;0.50;;;0.50;;
10096;SDS011;5087;42.662;23.466;2023-06-24T14:39:14;0.50;;;0.50;;
10096;SDS011;5087;42.662;23.466;2023-06-24T14:41:48;0.33;;;0.33;;
10096;SDS011;5087;42.662;23.466;2023-06-24T14:44:15;0.40;;;0.40;;
10096;SDS011;5087;42.662;23.466;2023-06-24T14:46:45;0.50;;;0.50;;
10096;SDS011;5087;42.662;23.466;2023-06-24T14:49:13;0.30;;;0.30;;
10096;SDS011;5087;42.662;23.466;2023-06-24T14:51:40;0.30;;;0.30;;
10096;SDS011;5087;42.662;23.466;2023-06-24T14:54:09;0.30;;;0.30;;
10096;SDS011;5087;42.662;23.466;2023-06-24T14:56:36;0.37;;;0.37;;
10096;SDS011;5087;42.662;23.466;2023-06-24T14:59:03;0.30;;;0.30;;
10096;SDS011;5087;42.662;23.466;2023-06-24T15:01:30;0.23;;;0.23;;
10096;SDS011;5087;42.662;23.466;2023-06-24T15:03:58;0.30;;;0.30;;
10096;SDS011;5087;42.662;23.466;2023-06-24T15:06:25;0.70;;;0.70;;
10096;SDS011;5087;42.662;23.466;2023-06-24T15:08:53;0.60;;;0.60;;
10096;SDS011;5087;42.662;23.466;2023-06-24T15:11:21;0.60;;;0.60;;